Time;durP1;ratioP1;P1;durP2;ratioP2;P2;SDS_P1;SDS_P2;PMS_P1;PMS_P2;Temp;Humidity;BMP_temperature;BMP_pressure;BME280_temperature;BME280_humidity;BME280_pressure;Samples;Min_cycle;Max_cycle;Signal;HPM_P1;HPM_P2
2021/05/31 00:00:48;;;;;;;5.32;2.72;;;;;;;8.12;79.55;95955.38;1007316;29;20048;-81
2021/05/31 00:02:13;;;;;;;4.75;2.75;;;;;;;8.37;79.83;96000.44;1007170;29;20071;-83
2021/05/31 00:04:08;;;;;;;5.40;2.80;;;;;;;8.76;79.71;96058.16;1007703;29;20053;-81
2021/05/31 00:05:45;;;;;;;5.22;2.80;;;;;;;8.25;79.95;95972.63;1010127;29;20045;-82
2021/05/31 00:07:07;;;;;;;4.13;2.60;;;;;;;8.27;79.59;95971.47;1002762;29;20117;-82
2021/05/31 00:07:55;;;;;;;5.95;2.90;;;;;;;8.31;79.90;95987.84;997319;29;20046;-83
2021/05/31 00:08:34;;;;;;;6.25;2.88;;;;;;;8.22;79.98;95975.56;993828;29;20080;-83
2021/05/31 00:09:28;;;;;;;5.45;2.88;;;;;;;8.22;80.55;95970.28;999516;29;20095;-83
2021/05/31 00:11:03;;;;;;;5.75;2.70;;;;;;;8.07;80.78;95962.97;997613;29;20157;-83
2021/05/31 00:12:06;;;;;;;6.07;3.05;;;;;;;8.74;81.61;96065.41;992346;29;20043;-81
2021/05/31 00:13:27;;;;;;;4.78;2.78;;;;;;;8.49;81.36;96014.22;1002487;29;20399;-82
2021/05/31 00:14:34;;;;;;;4.25;2.53;;;;;;;8.56;81.54;96025.00;1006909;29;20061;-82
2021/05/31 00:15:32;;;;;;;6.78;3.28;;;;;;;8.35;81.83;95983.88;1010920;29;20029;-83
2021/05/31 00:16:24;;;;;;;5.20;3.10;;;;;;;8.28;82.71;95986.34;1006773;29;20047;-82
2021/05/31 00:17:32;;;;;;;4.55;2.95;;;;;;;8.22;82.31;95970.28;1009997;29;20165;-81
2021/05/31 00:18:49;;;;;;;5.72;3.80;;;;;;;8.02;83.76;95959.97;1013057;29;20021;-82
2021/05/31 00:20:23;;;;;;;5.22;3.10;;;;;;;7.92;83.86;95943.41;1010936;29;20037;-82
2021/05/31 00:21:13;;;;;;;7.43;2.88;;;;;;;7.98;84.23;95966.56;1010167;29;20041;-81
2021/05/31 00:22:03;;;;;;;6.57;2.78;;;;;;;8.21;85.17;96013.63;1006868;29;20045;-82
2021/05/31 00:23:02;;;;;;;6.38;2.97;;;;;;;7.79;85.49;95953.63;1005262;29;20246;-82
2021/05/31 00:23:45;;;;;;;;;;;;;;;8.41;85.40;96048.56;1013990;29;20080;-81
2021/05/31 00:25:08;;;;;;;4.82;2.88;;;;;;;8.00;84.85;95992.88;1003805;29;20378;-82
2021/05/31 00:26:15;;;;;;;4.28;2.65;;;;;;;8.43;85.24;96041.31;1011005;29;20039;-82
2021/05/31 00:27:50;;;;;;;4.80;2.88;;;;;;;8.42;85.05;96050.25;1008997;29;20048;-82
2021/05/31 00:28:43;;;;;;;6.47;3.28;;;;;;;8.36;85.50;96051.72;1007800;29;20058;-83
2021/05/31 00:29:37;;;;;;;5.35;3.03;;;;;;;8.29;86.19;96051.50;1010504;29;20487;-82
2021/05/31 00:30:58;;;;;;;6.55;3.00;;;;;;;8.28;86.67;96044.56;1006409;29;20034;-82
2021/05/31 00:32:52;;;;;;;7.00;3.35;;;;;;;7.85;86.53;95979.41;1006734;29;20029;-82
2021/05/31 00:34:09;;;;;;;5.95;3.40;;;;;;;8.23;87.93;96052.13;1003041;29;20488;-81
2021/05/31 00:34:56;;;;;;;5.78;3.25;;;;;;;7.56;87.96;95933.03;1002252;29;20046;-82
2021/05/31 00:36:12;;;;;;;6.13;2.63;;;;;;;7.72;88.86;95980.66;1003904;29;20033;-83
2021/05/31 00:37:37;;;;;;;5.90;3.42;;;;;;;8.18;89.53;96041.19;1008389;29;20097;-82
2021/05/31 00:38:53;;;;;;;7.65;3.10;;;;;;;7.71;91.16;95984.28;1010590;29;20228;-82
2021/05/31 00:39:40;;;;;;;5.60;3.38;;;;;;;7.55;90.88;95944.56;1003243;29;20030;-82
2021/05/31 00:41:11;;;;;;;4.95;3.38;;;;;;;7.47;91.85;95957.72;1005314;29;20034;-82
2021/05/31 00:42:56;;;;;;;6.85;3.40;;;;;;;7.35;92.53;95936.88;1009738;29;20100;-81
2021/05/31 00:44:09;;;;;;;7.10;2.85;;;;;;;7.34;93.04;95940.47;1010559;29;20073;-82
2021/05/31 00:45:26;;;;;;;7.03;3.40;;;;;;;7.40;93.97;95961.97;1003464;29;20075;-83
2021/05/31 00:46:41;;;;;;;6.10;3.15;;;;;;;7.36;93.57;95950.91;1000268;29;20102;-82
2021/05/31 00:48:03;;;;;;;5.85;3.90;;;;;;;7.33;94.22;95957.34;1002531;29;20042;-82
2021/05/31 00:49:00;;;;;;;5.90;3.22;;;;;;;7.62;95.36;96009.03;1001242;29;20142;-81
2021/05/31 00:50:03;;;;;;;6.82;3.53;;;;;;;7.30;95.34;95959.47;1007684;29;20029;-82
2021/05/31 00:51:08;;;;;;;5.97;3.50;;;;;;;7.28;96.03;95956.97;1010368;29;20075;-80
2021/05/31 00:51:55;;;;;;;6.43;3.95;;;;;;;7.59;96.20;96006.69;1003154;29;20029;-81
2021/05/31 00:53:13;;;;;;;6.20;3.35;;;;;;;7.25;96.24;95941.44;999388;29;20037;-82
2021/05/31 00:55:02;;;;;;;7.22;3.95;;;;;;;7.73;95.99;96011.41;1011441;29;20033;-82
2021/05/31 00:56:24;;;;;;;7.00;4.05;;;;;;;7.87;96.13;96046.16;1007676;29;20033;-81
2021/05/31 00:57:55;;;;;;;10.35;3.38;;;;;;;7.41;95.53;95942.50;1010402;29;20040;-82
2021/05/31 00:59:03;;;;;;;5.85;3.40;;;;;;;7.33;96.12;95928.28;1010151;29;20036;-82
2021/05/31 01:00:25;;;;;;;6.80;4.03;;;;;;;7.93;96.21;96038.44;1009495;29;20523;-82
2021/05/31 01:01:48;;;;;;;6.22;3.58;;;;;;;7.89;97.19;96039.75;1012797;29;20023;-81
2021/05/31 01:02:42;;;;;;;5.13;3.55;;;;;;;7.72;98.06;96030.91;1010552;29;20029;-82
2021/05/31 01:03:34;;;;;;;6.22;3.83;;;;;;;7.49;98.06;95982.19;1007439;29;20041;-81
2021/05/31 01:04:54;;;;;;;7.13;3.55;;;;;;;7.25;97.74;95941.44;1002199;29;20037;-81
2021/05/31 01:06:02;;;;;;;7.75;4.05;;;;;;;7.74;97.37;96010.41;1006344;29;20488;-82
2021/05/31 01:07:24;;;;;;;5.22;3.30;;;;;;;7.38;97.90;95950.75;1010201;29;20393;-81
2021/05/31 01:08:28;;;;;;;6.20;3.90;;;;;;;7.12;99.05;95941.00;1002404;29;20041;-82
2021/05/31 01:09:45;;;;;;;5.97;3.67;;;;;;;7.89;98.66;96036.28;1005840;29;20048;-82
2021/05/31 01:10:56;;;;;;;5.18;3.42;;;;;;;7.82;99.72;96037.88;1006190;29;20021;-81
2021/05/31 01:12:11;;;;;;;9.32;3.35;;;;;;;7.15;100.00;95949.44;998031;29;20034;-81
2021/05/31 01:13:55;;;;;;;5.60;3.80;;;;;;;7.82;100.00;96037.88;993064;29;20043;-82
2021/05/31 01:15:02;;;;;;;7.47;3.30;;;;;;;7.38;99.62;95950.75;1002675;29;20058;-82
2021/05/31 01:16:11;;;;;;;5.80;3.38;;;;;;;7.99;98.56;96031.69;1002312;29;20113;-81
2021/05/31 01:17:52;;;;;;;6.68;3.72;;;;;;;7.95;98.69;96032.19;1009178;29;20077;-81
2021/05/31 01:19:10;;;;;;;6.25;4.03;;;;;;;7.78;98.64;95995.06;999930;29;20031;-81
2021/05/31 01:20:19;;;;;;;12.18;4.38;;;;;;;7.30;99.55;95939.16;998153;29;20528;-82
2021/05/31 01:21:34;;;;;;;5.40;3.58;;;;;;;7.76;100.00;96023.47;1006111;29;20484;-81
2021/05/31 01:22:58;;;;;;;5.43;3.58;;;;;;;6.97;100.00;95915.16;1002207;29;20175;-82
2021/05/31 01:24:11;;;;;;;5.88;3.40;;;;;;;7.55;100.00;96000.06;1005994;29;20052;-81
2021/05/31 01:25:32;;;;;;;6.35;3.70;;;;;;;7.72;100.00;96028.25;1001577;29;20197;-81
2021/05/31 01:26:50;;;;;;;5.07;3.75;;;;;;;7.13;100.00;95930.28;1002061;29;20523;-83
2021/05/31 01:28:17;;;;;;;6.72;3.40;;;;;;;7.11;100.00;95911.13;1002293;29;20107;-81
2021/05/31 01:29:17;;;;;;;5.65;3.80;;;;;;;7.08;100.00;95918.53;1004476;29;20037;-81
2021/05/31 01:30:22;;;;;;;5.50;3.40;;;;;;;7.03;100.00;95921.63;1005749;29;20030;-81
2021/05/31 01:31:19;;;;;;;5.57;3.55;;;;;;;7.07;100.00;95928.28;998454;29;20040;-82
2021/05/31 01:32:46;;;;;;;11.60;4.20;;;;;;;6.90;100.00;95926.50;998217;29;20087;-81
2021/05/31 01:33:40;;;;;;;6.88;4.55;;;;;;;6.86;100.00;95912.78;996871;29;20113;-82
2021/05/31 01:36:34;;;;;;;7.93;3.67;;;;;;;7.04;100.00;95954.97;1002906;29;20083;-82
2021/05/31 01:38:04;;;;;;;11.63;5.43;;;;;;;6.78;100.00;95945.22;1002054;29;20062;-82
2021/05/31 01:39:18;;;;;;;6.07;4.00;;;;;;;6.66;100.00;95898.94;1005915;29;20033;-82
2021/05/31 02:10:40;;;;;;;11.05;6.03;;;;;;;6.76;100.00;95919.97;181546;27;20460;-82
2021/05/31 02:11:57;;;;;;;11.05;5.35;;;;;;;6.63;100.00;95904.50;1018993;29;20036;-81
2021/05/31 02:13:05;;;;;;;7.90;4.65;;;;;;;6.62;100.00;95929.25;1015061;29;20037;-82
2021/05/31 02:14:14;;;;;;;7.72;4.28;;;;;;;6.73;100.00;95944.84;1007441;29;20037;-83
2021/05/31 02:15:21;;;;;;;14.23;5.13;;;;;;;6.64;100.00;95919.38;1010623;29;20107;-81
2021/05/31 02:16:29;;;;;;;8.40;4.70;;;;;;;7.27;100.00;96012.59;1002768;29;20054;-82
2021/05/31 02:17:45;;;;;;;7.60;4.32;;;;;;;7.28;100.00;96001.03;1000114;29;20098;-82
2021/05/31 02:18:54;;;;;;;7.88;4.32;;;;;;;6.48;100.00;95906.88;1011634;29;20029;-81
2021/05/31 02:20:33;;;;;;;6.10;4.15;;;;;;;6.56;100.00;95946.50;1002321;29;20515;-82
2021/05/31 02:21:38;;;;;;;6.68;4.28;;;;;;;6.59;100.00;95925.09;1001508;29;20038;-81
2021/05/31 02:22:25;;;;;;;6.55;4.20;;;;;;;6.38;100.00;95890.28;1006476;29;20029;-82
2021/05/31 02:23:10;;;;;;;8.20;4.70;;;;;;;7.07;100.00;95999.56;1011945;29;20033;-81
2021/05/31 02:23:56;;;;;;;9.23;5.43;;;;;;;6.41;100.00;95906.63;999816;29;20053;-81
2021/05/31 02:24:55;;;;;;;8.43;4.80;;;;;;;6.60;100.00;95926.75;999584;29;20063;-81
2021/05/31 02:25:53;;;;;;;12.00;4.90;;;;;;;6.68;100.00;95944.47;1009282;29;20044;-82
2021/05/31 02:26:43;;;;;;;7.65;4.80;;;;;;;6.90;100.00;95974.84;1006627;29;20029;-81
2021/05/31 02:27:45;;;;;;;9.00;4.47;;;;;;;6.48;100.00;95914.78;1013465;29;20082;-82
2021/05/31 02:28:37;;;;;;;7.35;5.03;;;;;;;6.67;100.00;95941.97;1016737;29;20032;-82
2021/05/31 02:29:26;;;;;;;7.63;4.20;;;;;;;7.03;100.00;96002.66;1013410;29;20037;-82
2021/05/31 02:30:35;;;;;;;7.93;5.05;;;;;;;6.60;100.00;95937.31;1006248;29;20025;-82
2021/05/31 02:31:25;;;;;;;9.73;4.50;;;;;;;6.46;100.00;95902.72;1009669;29;20025;-81
2021/05/31 02:32:32;;;;;;;8.82;4.55;;;;;;;7.07;100.00;95991.66;1011490;29;20061;-82
2021/05/31 02:33:35;;;;;;;8.48;4.57;;;;;;;7.16;100.00;95990.72;1006753;29;20041;-81
2021/05/31 02:34:31;;;;;;;9.27;4.35;;;;;;;6.64;100.00;95931.75;1010484;29;20029;-82
2021/05/31 02:35:22;;;;;;;7.20;5.05;;;;;;;6.88;100.00;95966.25;1013021;29;20073;-80
2021/05/31 02:36:23;;;;;;;8.35;4.68;;;;;;;6.81;100.00;95959.94;1016545;29;20013;-82
2021/05/31 02:37:10;;;;;;;7.72;4.30;;;;;;;6.54;100.00;95918.63;1013292;29;20041;-80
2021/05/31 02:38:14;;;;;;;9.13;4.35;;;;;;;6.54;100.00;95918.63;1013342;29;20029;-81
2021/05/31 02:39:00;;;;;;;9.30;4.90;;;;;;;6.78;100.00;95941.75;1017273;29;20032;-81
2021/05/31 02:39:46;;;;;;;7.18;4.68;;;;;;;7.09;100.00;95991.47;1009902;29;20009;-80
2021/05/31 02:40:38;;;;;;;8.45;5.07;;;;;;;6.49;100.00;95895.31;1009653;29;20013;-81
2021/05/31 02:41:41;;;;;;;11.27;6.88;;;;;;;6.86;100.00;95952.38;1012916;29;20058;-80
2021/05/31 02:42:29;;;;;;;12.07;6.90;;;;;;;6.79;100.00;95946.03;1017451;29;20025;-79
2021/05/31 02:43:53;;;;;;;11.93;6.60;;;;;;;6.40;100.00;95888.31;1013649;29;20025;-81
2021/05/31 02:45:49;;;;;;;16.42;7.53;;;;;;;7.01;100.00;95981.69;1016244;29;20033;-81
2021/05/31 02:47:15;;;;;;;7.78;5.40;;;;;;;6.92;100.00;95972.06;1021400;29;20100;-81
2021/05/31 02:48:16;;;;;;;8.30;4.95;;;;;;;6.64;100.00;95914.09;1017023;29;20036;-81
2021/05/31 02:49:20;;;;;;;9.32;5.30;;;;;;;6.45;100.00;95880.78;1016564;29;20096;-79
2021/05/31 02:50:27;;;;;;;9.18;5.53;;;;;;;6.47;100.00;95889.38;1013515;29;20025;-80
2021/05/31 02:51:35;;;;;;;7.80;4.43;;;;;;;6.40;100.00;95868.03;1009583;29;20025;-81
2021/05/31 02:52:41;;;;;;;7.05;4.50;;;;;;;6.26;100.00;95891.50;1005611;29;20048;-81
2021/05/31 02:53:49;;;;;;;8.15;4.60;;;;;;;6.18;100.00;95869.34;1013483;29;20108;-80
2021/05/31 02:54:57;;;;;;;6.63;4.35;;;;;;;6.18;100.00;95866.72;1009807;29;20041;-82
2021/05/31 02:56:07;;;;;;;7.35;4.18;;;;;;;6.27;100.00;95872.03;1009780;29;20025;-80
2021/05/31 02:57:07;;;;;;;6.63;4.40;;;;;;;6.25;100.00;95889.81;998224;29;20252;-79
2021/05/31 02:58:19;;;;;;;6.38;4.38;;;;;;;6.88;100.00;95976.81;1002619;29;20069;-81
2021/05/31 02:59:29;;;;;;;7.03;4.70;;;;;;;6.87;100.00;95975.13;1005909;29;20098;-85
2021/05/31 03:00:19;;;;;;;9.25;4.70;;;;;;;6.70;100.00;95949.59;1005381;29;20050;-81
2021/05/31 03:01:33;;;;;;;9.38;4.50;;;;;;;6.91;100.00;95973.84;1010962;29;20026;-79
2021/05/31 03:02:56;;;;;;;7.40;4.57;;;;;;;6.44;100.00;95894.94;1010621;29;20057;-79
2021/05/31 03:04:13;;;;;;;7.97;4.93;;;;;;;6.53;100.00;95923.06;1013255;29;20021;-82
2021/05/31 03:05:46;;;;;;;6.70;4.30;;;;;;;6.86;100.00;95978.78;1013173;29;20021;-82
2021/05/31 03:06:45;;;;;;;8.57;4.65;;;;;;;6.17;100.00;95862.41;1013732;29;20068;-82
2021/05/31 03:07:47;;;;;;;7.93;4.57;;;;;;;6.31;100.00;95884.78;1013130;29;20101;-81
2021/05/31 03:09:14;;;;;;;6.28;3.75;;;;;;;6.85;100.00;95973.66;1015928;29;20040;-81
2021/05/31 03:10:58;;;;;;;8.80;4.40;;;;;;;6.09;100.00;95858.88;1007647;29;20041;-82
2021/05/31 03:12:21;;;;;;;6.55;3.97;;;;;;;6.47;100.00;95921.03;1006496;29;20064;-82
2021/05/31 03:13:42;;;;;;;6.78;4.10;;;;;;;6.45;100.00;95901.06;1014569;29;20038;-80
2021/05/31 03:15:02;;;;;;;7.88;4.30;;;;;;;6.47;100.00;95922.84;1009113;29;20073;-81
2021/05/31 03:16:30;;;;;;;7.28;4.50;;;;;;;6.04;100.00;95859.31;1003608;29;20034;-82
2021/05/31 03:18:18;;;;;;;7.60;3.88;;;;;;;6.06;100.00;95878.47;1011406;29;20085;-81
2021/05/31 03:19:07;;;;;;;7.97;4.07;;;;;;;5.98;100.00;95858.09;1012486;29;20060;-82
2021/05/31 03:20:02;;;;;;;8.05;4.82;;;;;;;6.57;100.00;95953.44;1009008;29;20112;-82
2021/05/31 03:21:48;;;;;;;5.88;4.20;;;;;;;6.18;100.00;95905.41;1008897;29;20041;-82
2021/05/31 03:23:15;;;;;;;7.88;4.38;;;;;;;6.01;100.00;95875.44;1016265;29;20075;-81
2021/05/31 03:24:34;;;;;;;6.25;4.07;;;;;;;6.01;100.00;95859.63;1008949;29;20044;-81
2021/05/31 03:25:40;;;;;;;;;;;;;;;6.73;100.00;95973.03;1006184;29;20160;-82
2021/05/31 03:26:50;;;;;;;7.60;4.53;;;;;;;6.86;100.00;95970.84;1010906;29;19994;-82
2021/05/31 03:28:20;;;;;;;;;;;;;;;6.82;100.00;95966.84;1007645;29;20472;-82
2021/05/31 03:32:09;;;;;;;10.95;5.13;;;;;;;6.99;100.00;95983.66;1013555;29;20483;-81
2021/05/31 03:33:14;;;;;;;7.97;4.20;;;;;;;6.37;100.00;95899.16;1004465;29;20041;-82
2021/05/31 03:34:54;;;;;;;8.93;5.05;;;;;;;6.65;100.00;95943.94;1005725;29;20037;-82
2021/05/31 03:36:02;;;;;;;10.52;4.65;;;;;;;6.28;100.00;95865.81;1013504;29;20027;-82
2021/05/31 03:37:12;;;;;;;8.13;4.88;;;;;;;6.66;100.00;95922.69;1006473;29;20033;-81
2021/05/31 03:38:28;;;;;;;;;;;;;;;6.99;100.00;95968.63;1005988;29;20049;-81
2021/05/31 03:39:25;;;;;;;12.32;6.47;;;;;;;6.95;100.00;95962.00;998227;29;19913;-81
2021/05/31 03:40:33;;;;;;;14.52;5.05;;;;;;;6.35;100.00;95886.13;1010862;29;20037;-81
2021/05/31 03:41:41;;;;;;;12.68;4.80;;;;;;;6.68;100.00;95943.63;1008846;29;20065;-81
2021/05/31 03:43:20;;;;;;;11.88;5.60;;;;;;;6.12;100.00;95859.41;1000978;29;20038;-82
2021/05/31 03:44:43;;;;;;;10.48;5.00;;;;;;;6.79;100.00;95964.50;1012286;29;20184;-81
2021/05/31 03:46:20;;;;;;;8.65;4.85;;;;;;;6.30;100.00;95883.13;1005865;29;20029;-81
2021/05/31 03:48:15;;;;;;;8.30;4.90;;;;;;;6.28;100.00;95881.63;1013483;29;20410;-82
2021/05/31 03:48:58;;;;;;;11.07;4.90;;;;;;;6.73;100.00;95973.03;1006410;29;20037;-81
2021/05/31 03:50:07;;;;;;;10.27;5.07;;;;;;;6.25;100.00;95880.09;1009520;29;20037;-82
2021/05/31 03:51:07;;;;;;;;;;;;;;;6.78;100.00;95970.78;1003051;29;20056;-81
2021/05/31 03:52:07;;;;;;;7.72;4.70;;;;;;;6.71;100.00;95975.84;998164;29;19920;-81
2021/05/31 03:54:01;;;;;;;9.50;5.28;;;;;;;6.18;100.00;95885.16;1006977;29;20037;-82
2021/05/31 03:55:52;;;;;;;7.35;4.70;;;;;;;6.01;100.00;95860.44;1013118;29;20048;-82
2021/05/31 03:57:28;;;;;;;6.32;4.30;;;;;;;6.77;100.00;95961.19;1006399;29;20041;-82
2021/05/31 03:59:11;;;;;;;8.43;4.30;;;;;;;6.27;100.00;95893.13;1013278;29;20107;-81
2021/05/31 04:00:37;;;;;;;11.25;5.03;;;;;;;5.97;100.00;95845.88;1011184;29;20063;-82
2021/05/31 04:02:29;;;;;;;9.02;5.13;;;;;;;6.74;100.00;95964.13;1009772;29;20064;-81
2021/05/31 04:06:20;;;;;;;11.05;5.28;;;;;;;6.10;100.00;95895.63;1003862;29;20060;-82
2021/05/31 04:12:11;;;;;;;10.90;5.72;;;;;;;6.07;100.00;95874.84;1002285;29;20033;-81
2021/05/31 04:13:33;;;;;;;8.40;5.10;;;;;;;6.14;100.00;95872.44;987509;29;20054;-81
2021/05/31 04:14:38;;;;;;;8.05;4.80;;;;;;;6.21;100.00;95899.84;987118;30;20042;-82
2021/05/31 04:16:23;;;;;;;9.63;5.22;;;;;;;6.18;100.00;95866.72;984959;30;20111;-82
2021/05/31 04:18:17;;;;;;;6.15;4.18;;;;;;;6.82;100.00;95951.00;990218;30;20240;-81
2021/05/31 04:19:49;;;;;;;7.35;4.50;;;;;;;6.23;100.00;95848.63;997278;29;20034;-81
2021/05/31 04:20:52;;;;;;;9.73;4.70;;;;;;;6.26;100.00;95879.13;986448;30;20116;-81
2021/05/31 04:22:06;;;;;;;10.82;5.65;;;;;;;6.41;100.00;95885.53;994978;29;20146;-82
2021/05/31 04:22:45;;;;;;;9.60;5.22;;;;;;;6.62;100.00;95900.22;995343;29;20022;-81
2021/05/31 04:24:03;;;;;;;8.48;4.97;;;;;;;6.96;100.00;95963.66;986481;30;20028;-82
2021/05/31 04:24:55;;;;;;;8.55;5.10;;;;;;;6.82;100.00;95955.47;994447;29;20401;-82
2021/05/31 04:26:03;;;;;;;9.80;5.47;;;;;;;6.09;100.00;95854.41;990011;30;20043;-81
2021/05/31 04:27:18;;;;;;;10.25;5.00;;;;;;;6.46;100.00;95905.34;991250;29;20035;-81
2021/05/31 04:28:29;;;;;;;10.80;4.80;;;;;;;6.74;100.00;95958.84;1000492;29;20064;-81
2021/05/31 04:30:09;;;;;;;8.65;4.85;;;;;;;6.18;100.00;95850.03;1001383;29;20535;-80
2021/05/31 04:31:41;;;;;;;9.05;4.72;;;;;;;6.85;100.00;95961.28;1003373;29;20519;-81
2021/05/31 04:36:57;;;;;;;10.95;4.57;;;;;;;6.88;100.00;95960.13;1009246;29;20407;-82
2021/05/31 04:40:27;;;;;;;12.23;5.50;;;;;;;6.95;100.00;95956.72;1004770;29;20527;-81
2021/05/31 04:40:58;;;;;;;9.20;5.30;;;;;;;6.92;100.00;95945.66;1003751;29;20507;-80
2021/05/31 04:42:22;;;;;;;9.48;5.00;;;;;;;6.91;100.00;95933.41;834575;27;21194;-80
2021/05/31 04:42:53;;;;;;;10.45;5.10;;;;;;;6.96;100.00;95941.72;1010370;29;20112;-81
2021/05/31 04:43:23;;;;;;;10.80;5.28;;;;;;;7.02;100.00;95942.91;1006146;29;20081;-82
2021/05/31 04:43:54;;;;;;;12.63;5.45;;;;;;;6.80;100.00;95906.28;1007339;29;20036;-81
2021/05/31 04:44:25;;;;;;;12.38;5.35;;;;;;;7.07;100.00;95948.56;1011416;29;20017;-81
2021/05/31 04:49:24;;;;;;;11.43;5.43;;;;;;;7.48;100.00;95962.03;1009635;29;20110;-81
2021/05/31 04:50:46;;;;;;;7.53;4.97;;;;;;;7.33;100.00;95951.19;1009112;29;20079;-81
2021/05/31 04:52:25;;;;;;;9.68;5.43;;;;;;;7.07;100.00;95954.69;1013026;29;20414;-81
2021/05/31 04:56:00;;;;;;;8.65;5.47;;;;;;;7.40;100.00;95946.94;1014045;29;20431;-82
2021/05/31 04:58:36;;;;;;;10.50;5.57;;;;;;;7.50;100.00;95954.78;1006754;29;20025;-82
2021/05/31 04:59:59;;;;;;;9.57;5.15;;;;;;;7.54;100.00;95956.09;1011355;29;20121;-82
2021/05/31 05:01:34;;;;;;;9.05;5.28;;;;;;;7.63;100.00;95965.75;1012502;29;20045;-82
2021/05/31 05:02:51;;;;;;;8.95;5.60;;;;;;;7.13;100.00;95881.94;1010000;29;20064;-82
2021/05/31 05:04:07;;;;;;;15.93;9.40;;;;;;;7.63;100.00;95956.97;1006698;29;20037;-82
2021/05/31 05:05:53;;;;;;;10.13;5.28;;;;;;;7.65;100.00;95952.38;1003567;29;20114;-82
2021/05/31 05:07:03;;;;;;;9.40;5.50;;;;;;;7.27;100.00;95883.97;1009102;29;20033;-81
2021/05/31 05:08:44;;;;;;;9.30;5.45;;;;;;;7.42;100.00;95886.03;1005000;29;20073;-82
2021/05/31 05:10:22;;;;;;;8.75;5.32;;;;;;;7.29;100.00;95846.84;1001838;29;20077;-82
2021/05/31 05:14:03;;;;;;;12.45;5.80;;;;;;;7.94;100.00;95962.56;1002213;29;20096;-83
2021/05/31 05:15:10;;;;;;;10.60;6.30;;;;;;;7.35;100.00;95870.00;997876;29;20028;-81
2021/05/31 05:18:48;;;;;;;11.20;6.50;;;;;;;7.93;100.00;95963.59;976363;30;20052;-81
2021/05/31 05:20:30;;;;;;;9.60;6.18;;;;;;;7.36;100.00;95882.22;971865;30;20080;-82
2021/05/31 05:21:56;;;;;;;13.25;6.30;;;;;;;7.84;100.00;95961.91;968373;30;20100;-81
2021/05/31 05:23:55;;;;;;;12.07;6.10;;;;;;;7.87;100.00;95961.56;971843;30;20037;-81
2021/05/31 05:25:21;;;;;;;12.23;5.97;;;;;;;7.80;100.00;95979.03;968433;30;20073;-81
2021/05/31 05:32:34;;;;;;;8.35;5.50;;;;;;;7.63;100.00;95907.63;972361;30;20476;-82
2021/05/31 05:34:00;;;;;;;10.95;6.47;;;;;;;8.02;100.00;95959.97;980426;30;20024;-81
2021/05/31 05:35:21;;;;;;;19.05;6.50;;;;;;;7.52;100.00;95873.53;980262;30;20049;-81
2021/05/31 05:37:01;;;;;;;17.33;6.28;;;;;;;7.68;100.00;95909.75;981927;30;20075;-81
2021/05/31 05:41:27;;;;;;;15.35;5.50;;;;;;;7.71;100.00;95906.81;1005867;29;20162;-82
2021/05/31 05:48:38;;;;;;;;;;;;;;;8.53;100.00;95961.78;1009565;29;20033;-82
2021/05/31 05:49:39;;;;;;;13.68;6.50;;;;;;;8.24;100.00;95916.25;1007655;29;19919;-83
2021/05/31 05:51:26;;;;;;;11.13;6.65;;;;;;;8.06;100.00;95881.13;1009485;29;20022;-82
2021/05/31 05:52:38;;;;;;;10.60;6.35;;;;;;;8.18;100.00;95897.53;1011958;29;20040;-82
2021/05/31 05:55:18;;;;;;;11.25;6.32;;;;;;;8.67;100.00;95969.09;1003752;29;20485;-82
2021/05/31 06:55:43;;;;;;;7.35;5.13;;;;;;;11.68;77.70;95949.47;607097;23;20346;-80
2021/05/31 06:56:16;;;;;;;7.90;4.82;;;;;;;11.75;76.43;95939.75;1008739;29;20068;-81
2021/05/31 06:56:47;;;;;;;9.38;5.30;;;;;;;11.62;77.20;95929.78;1005801;29;20030;-82
2021/05/31 06:57:20;;;;;;;8.85;5.15;;;;;;;11.70;76.81;95921.72;1010028;29;20403;-81
2021/05/31 06:57:54;;;;;;;8.45;5.32;;;;;;;12.05;76.95;95942.44;1006114;29;20029;-81
2021/05/31 06:58:26;;;;;;;8.85;5.47;;;;;;;12.14;76.09;95928.03;1009740;29;20050;-82
2021/05/31 06:58:57;;;;;;;6.53;5.03;;;;;;;12.22;75.87;95951.88;1005624;29;20033;-80
2021/05/31 06:59:33;;;;;;;10.30;5.18;;;;;;;12.35;75.90;95937.06;1000611;29;20024;-82
2021/05/31 07:00:35;;;;;;;9.50;5.38;;;;;;;12.52;75.54;95948.31;1002764;29;20046;-82
2021/05/31 07:02:01;;;;;;;7.50;5.22;;;;;;;12.63;74.34;95946.00;1012731;29;20037;-82
2021/05/31 07:02:44;;;;;;;8.50;5.43;;;;;;;12.58;73.51;95932.41;1009763;29;20037;-80
2021/05/31 07:06:52;;;;;;;10.45;5.00;;;;;;;13.69;66.69;95862.56;1013910;29;20024;-85
2021/05/31 07:08:02;;;;;;;11.10;5.05;;;;;;;14.67;66.12;95939.78;1012268;29;20108;-82
2021/05/31 07:08:43;;;;;;;6.68;4.65;;;;;;;14.71;64.37;95895.56;1011956;29;20033;-79
2021/05/31 07:09:17;;;;;;;7.68;5.05;;;;;;;15.35;62.76;95935.34;1009774;29;20021;-79
2021/05/31 07:09:47;;;;;;;7.32;4.55;;;;;;;15.75;61.64;95933.47;1012973;29;20107;-79
2021/05/31 07:10:21;;;;;;;7.85;5.13;;;;;;;15.82;60.71;95930.78;1005091;29;20028;-80
2021/05/31 07:10:55;;;;;;;6.88;5.13;;;;;;;15.63;61.73;95937.81;1010461;29;20403;-80
2021/05/31 07:11:27;;;;;;;7.63;5.15;;;;;;;16.60;58.58;95935.25;1001458;29;20504;-80
2021/05/31 07:11:57;;;;;;;6.35;4.82;;;;;;;16.87;57.26;95922.53;1000580;29;20031;-81
2021/05/31 07:12:28;;;;;;;7.63;5.10;;;;;;;17.11;56.67;95934.34;1005538;29;20035;-81
2021/05/31 07:13:02;;;;;;;6.35;4.38;;;;;;;16.98;56.14;95931.78;1006163;29;20024;-81
2021/05/31 07:13:33;;;;;;;12.27;4.90;;;;;;;17.25;55.89;95929.72;1007937;29;20021;-82
2021/05/31 07:14:04;;;;;;;26.40;6.57;;;;;;;16.80;56.08;95934.34;1001826;29;20022;-81
2021/05/31 07:14:37;;;;;;;45.30;7.95;;;;;;;17.56;54.88;95929.88;1005568;29;20013;-80
2021/05/31 07:15:11;;;;;;;235.60;22.00;;;;;;;17.00;55.19;95926.16;997608;29;20455;-80
2021/05/31 07:15:41;;;;;;;97.45;10.00;;;;;;;17.66;54.52;95914.06;1001397;29;20022;-81
2021/05/31 07:16:15;;;;;;;61.50;8.85;;;;;;;18.53;52.70;95919.34;997213;29;20109;-82
2021/05/31 07:16:51;;;;;;;78.93;8.68;;;;;;;18.85;51.60;95924.53;1001202;29;20026;-80
2021/05/31 07:17:21;;;;;;;78.53;8.90;;;;;;;18.08;52.95;95922.38;1004876;29;20021;-80
2021/05/31 07:17:52;;;;;;;31.33;6.75;;;;;;;17.93;52.98;95924.59;1001314;29;20030;-81
2021/05/31 07:18:23;;;;;;;7.82;4.57;;;;;;;17.75;52.80;95907.38;1000823;29;20446;-80
2021/05/31 07:18:54;;;;;;;7.85;4.30;;;;;;;17.09;53.26;95935.63;1004819;29;20036;-80
2021/05/31 07:19:25;;;;;;;8.95;4.78;;;;;;;17.11;53.87;95930.84;989871;29;20625;-82
2021/05/31 07:19:56;;;;;;;5.78;4.57;;;;;;;17.62;53.29;95929.00;994031;29;20406;-80
2021/05/31 07:20:27;;;;;;;6.30;4.30;;;;;;;17.93;53.07;95920.03;997674;29;20038;-80
2021/05/31 07:20:57;;;;;;;9.73;5.72;;;;;;;18.69;51.84;95923.28;1001357;29;20018;-80
2021/05/31 07:21:28;;;;;;;6.28;4.63;;;;;;;18.32;51.82;95934.06;1001745;29;20397;-81
2021/05/31 07:21:59;;;;;;;7.60;4.50;;;;;;;18.26;52.88;95932.28;1013642;29;20089;-80
2021/05/31 07:22:30;;;;;;;8.52;5.15;;;;;;;16.84;55.74;95930.19;1012887;29;20192;-81
2021/05/31 07:23:00;;;;;;;5.55;3.97;;;;;;;16.23;55.78;95912.75;1009453;29;20495;-82
2021/05/31 07:23:31;;;;;;;6.40;4.10;;;;;;;16.59;55.97;95912.16;1001757;29;20034;-81
2021/05/31 07:24:02;;;;;;;8.30;4.70;;;;;;;16.93;54.82;95929.75;997839;29;20102;-82
2021/05/31 07:24:32;;;;;;;6.97;4.15;;;;;;;16.51;55.46;95915.06;1005626;29;20038;-83
2021/05/31 07:25:05;;;;;;;5.47;4.40;;;;;;;16.77;55.45;95936.41;1001554;29;20061;-83
2021/05/31 07:25:35;;;;;;;6.75;4.80;;;;;;;15.99;57.71;95926.63;1005314;29;20166;-79
2021/05/31 07:26:06;;;;;;;10.05;5.10;;;;;;;15.80;58.46;95933.69;1005286;29;20142;-82
2021/05/31 07:26:37;;;;;;;7.45;4.70;;;;;;;16.48;56.51;95923.56;997896;29;20037;-83
2021/05/31 07:27:08;;;;;;;5.40;4.45;;;;;;;16.00;58.27;95947.00;1001708;29;20026;-80
2021/05/31 07:27:38;;;;;;;7.88;4.75;;;;;;;16.42;56.96;95943.19;1001950;29;20026;-81
2021/05/31 07:28:09;;;;;;;10.02;5.00;;;;;;;16.51;55.66;95907.03;1005209;29;20118;-80
2021/05/31 07:28:40;;;;;;;8.73;4.57;;;;;;;16.33;56.65;95939.91;1005466;29;20025;-82
2021/05/31 07:29:10;;;;;;;7.15;5.00;;;;;;;17.28;55.54;95931.16;1009418;29;20035;-83
2021/05/31 07:29:41;;;;;;;5.18;4.07;;;;;;;18.40;51.74;95935.63;997758;29;20026;-80
2021/05/31 07:30:12;;;;;;;7.00;4.68;;;;;;;17.69;52.68;95940.50;994133;29;20144;-80
2021/05/31 07:30:43;;;;;;;7.18;4.90;;;;;;;17.81;53.52;95938.72;1006058;29;20025;-81
2021/05/31 07:31:13;;;;;;;8.52;5.35;;;;;;;17.45;53.71;95940.31;997583;29;20027;-80